UAL20 KEWR-LIMC
Flight info
| Callsign | UAL20 |
|---|---|
| Flight time | N/A |
| Altitude | 37000 |
| Route | MERIT DCT HFD DCT PUT DCT TUSKY DCT YHZ Q846 NOTOP DCT JOOPY/M085F380 DCT 49N050W 50N040W 51N030W 52N020W DCT LIMRI DCT XETBO/M085F390 DCT TAKAS/N0488F390 DCT ALUTA DCT KORER DCT LEMKA DCT BEBIX/N0496F400 DCT VALKU/N0495F390 DCT TIS DCT MEBAK DCT GIPNO DCT BALSI DCT OBIGO DCT ROBEX DCT LAPRI/N0492F400 DCT MOGBO DCT KODOK DCT TOP M135 ASTIG |
| Aircraft | B789/H-SDE1E2E3FGHIJ2J3J4J5M1RWXY/LB1D1 |
Departure
| Time | 2026-05-05 18:44 |
|---|---|
| Airport | Newark Liberty International Airport (KEWR) |
Arrival
| Time | N/A |
|---|---|
| Airport | Milan Malpensa International Airport (LIMC) |
| Time | Latitude | Longitude | Altitude | Speed | Heading |
|---|---|---|---|---|---|
| 2026-05-05 18:13 | 40.69534 | -74.17460 | 27 ft | 0 kts | 153° |
| 2026-05-05 18:14 | 40.69649 | -74.17268 | 27 ft | 0 kts | 194° |
| 2026-05-05 18:31 | 40.69669 | -74.17262 | 26 ft | 2 kts | 194° |
| 2026-05-05 18:31 | 40.69690 | -74.17263 | 27 ft | 4 kts | 139° |
| 2026-05-05 18:31 | 40.69706 | -74.17283 | 27 ft | 3 kts | 137° |
| 2026-05-05 18:32 | 40.69726 | -74.17307 | 27 ft | 4 kts | 146° |
| 2026-05-05 18:32 | 40.69740 | -74.17317 | 27 ft | 4 kts | 157° |
| 2026-05-05 18:32 | 40.69749 | -74.17322 | 27 ft | 4 kts | 121° |
| 2026-05-05 18:33 | 40.69748 | -74.17344 | 27 ft | 4 kts | 43° |
| 2026-05-05 18:33 | 40.69728 | -74.17367 | 27 ft | 4 kts | 41° |
| 2026-05-05 18:33 | 40.69722 | -74.17373 | 27 ft | 0 kts | 41° |
| 2026-05-05 18:35 | 40.69735 | -74.17359 | 27 ft | 7 kts | 37° |
| 2026-05-05 18:36 | 40.69806 | -74.17278 | 26 ft | 18 kts | 44° |
| 2026-05-05 18:36 | 40.69853 | -74.17206 | 27 ft | 1 kts | 89° |
| 2026-05-05 18:36 | 40.69849 | -74.17199 | 27 ft | 1 kts | 130° |
| 2026-05-05 18:36 | 40.69819 | -74.17167 | 27 ft | 12 kts | 140° |
| 2026-05-05 18:37 | 40.69716 | -74.17067 | 27 ft | 23 kts | 152° |
| 2026-05-05 18:37 | 40.69634 | -74.16995 | 27 ft | 7 kts | 108° |
| 2026-05-05 18:37 | 40.69637 | -74.16939 | 27 ft | 6 kts | 75° |
| 2026-05-05 18:37 | 40.69654 | -74.16873 | 27 ft | 10 kts | 69° |
| 2026-05-05 18:38 | 40.69682 | -74.16779 | 27 ft | 11 kts | 69° |
| 2026-05-05 18:38 | 40.69720 | -74.16721 | 27 ft | 8 kts | 30° |
| 2026-05-05 18:38 | 40.69773 | -74.16688 | 26 ft | 9 kts | 25° |
| 2026-05-05 18:38 | 40.69832 | -74.16651 | 26 ft | 11 kts | 25° |
| 2026-05-05 18:39 | 40.69917 | -74.16594 | 26 ft | 15 kts | 25° |
| 2026-05-05 18:39 | 40.69997 | -74.16544 | 30 ft | 7 kts | 25° |
| 2026-05-05 18:39 | 40.70038 | -74.16519 | 32 ft | 0 kts | 25° |
| 2026-05-05 18:39 | 40.70038 | -74.16518 | 26 ft | 0 kts | 25° |
| 2026-05-05 18:40 | 40.70057 | -74.16502 | 32 ft | 3 kts | 47° |
| 2026-05-05 18:40 | 40.70058 | -74.16496 | 26 ft | 0 kts | 68° |
| 2026-05-05 18:40 | 40.70058 | -74.16495 | 26 ft | 0 kts | 70° |
| 2026-05-05 18:41 | 40.70063 | -74.16452 | 30 ft | 12 kts | 88° |
| 2026-05-05 18:41 | 40.70016 | -74.16376 | 29 ft | 10 kts | 180° |
| 2026-05-05 18:42 | 40.69983 | -74.16391 | 24 ft | 0 kts | 205° |
| 2026-05-05 18:43 | 40.69911 | -74.16433 | 29 ft | 33 kts | 202° |
| 2026-05-05 18:43 | 40.69534 | -74.16673 | 29 ft | 86 kts | 206° |
| 2026-05-05 18:43 | 40.68841 | -74.17110 | 29 ft | 133 kts | 206° |
| 2026-05-05 18:44 | 40.67892 | -74.17718 | 100 ft | 166 kts | 211° |
| 2026-05-05 18:44 | 40.66872 | -74.18385 | 627 ft | 164 kts | 202° |
| 2026-05-05 18:44 | 40.65670 | -74.18539 | 787 ft | 189 kts | 175° |
| 2026-05-05 18:44 | 40.64353 | -74.18314 | 1285 ft | 190 kts | 181° |
| 2026-05-05 18:45 | 40.63090 | -74.18665 | 1841 ft | 185 kts | 205° |
| 2026-05-05 18:45 | 40.61948 | -74.19478 | 2135 ft | 191 kts | 209° |
| 2026-05-05 18:45 | 40.60739 | -74.20301 | 2423 ft | 205 kts | 208° |
| 2026-05-05 18:45 | 40.59396 | -74.21169 | 2515 ft | 223 kts | 208° |
| 2026-05-05 18:46 | 40.58213 | -74.22496 | 2416 ft | 231 kts | 239° |
| 2026-05-05 18:46 | 40.57792 | -74.24537 | 2518 ft | 236 kts | 257° |
| 2026-05-05 18:46 | 40.57866 | -74.26768 | 2456 ft | 258 kts | 285° |
| 2026-05-05 18:46 | 40.58768 | -74.28809 | 2468 ft | 265 kts | 308° |
| 2026-05-05 18:47 | 40.60341 | -74.30150 | 2487 ft | 276 kts | 334° |
| 2026-05-05 18:47 | 40.62287 | -74.30391 | 2548 ft | 291 kts | 6° |
| 2026-05-05 18:47 | 40.64134 | -74.29344 | 3301 ft | 291 kts | 37° |
| 2026-05-05 18:47 | 40.65520 | -74.27473 | 4031 ft | 289 kts | 51° |
| 2026-05-05 18:48 | 40.66825 | -74.25407 | 4712 ft | 291 kts | 52° |
| 2026-05-05 18:48 | 40.68106 | -74.23378 | 5278 ft | 294 kts | 50° |
| 2026-05-05 18:48 | 40.69450 | -74.21319 | 5842 ft | 299 kts | 50° |
| 2026-05-05 18:48 | 40.70817 | -74.19240 | 6429 ft | 301 kts | 50° |
| 2026-05-05 18:49 | 40.72190 | -74.17127 | 6965 ft | 306 kts | 50° |
| 2026-05-05 18:49 | 40.73581 | -74.14980 | 7504 ft | 310 kts | 49° |
| 2026-05-05 18:49 | 40.74990 | -74.12807 | 8014 ft | 315 kts | 49° |
| 2026-05-05 18:49 | 40.76424 | -74.10593 | 8514 ft | 320 kts | 48° |
| 2026-05-05 18:50 | 40.77880 | -74.08346 | 9032 ft | 324 kts | 47° |
| 2026-05-05 18:50 | 40.79356 | -74.06069 | 9567 ft | 328 kts | 47° |
| 2026-05-05 18:50 | 40.80846 | -74.03764 | 10068 ft | 333 kts | 46° |
| 2026-05-05 18:50 | 40.82376 | -74.01400 | 10339 ft | 346 kts | 46° |
| 2026-05-05 18:51 | 40.83976 | -73.98927 | 10508 ft | 362 kts | 46° |
| 2026-05-05 18:51 | 40.85644 | -73.96341 | 10750 ft | 377 kts | 46° |
| 2026-05-05 18:51 | 40.86808 | -73.94536 | 10933 ft | 386 kts | 46° |
| 2026-05-05 18:51 | 40.88560 | -73.91821 | 11114 ft | 402 kts | 46° |
| 2026-05-05 18:52 | 40.90396 | -73.88969 | 11433 ft | 412 kts | 46° |
| 2026-05-05 18:52 | 40.92255 | -73.86067 | 11998 ft | 414 kts | 46° |
| 2026-05-05 18:52 | 40.94124 | -73.83156 | 12582 ft | 417 kts | 46° |
| 2026-05-05 18:52 | 40.96009 | -73.80223 | 13138 ft | 419 kts | 46° |
| 2026-05-05 18:53 | 40.97903 | -73.77273 | 13686 ft | 422 kts | 46° |
| 2026-05-05 18:53 | 40.99803 | -73.74306 | 14194 ft | 423 kts | 46° |
| 2026-05-05 18:53 | 41.01711 | -73.71323 | 14666 ft | 426 kts | 46° |
| 2026-05-05 18:53 | 41.03627 | -73.68325 | 15146 ft | 428 kts | 46° |
| 2026-05-05 18:54 | 41.05486 | -73.65416 | 15613 ft | 429 kts | 46° |
| 2026-05-05 18:54 | 41.07455 | -73.62331 | 16091 ft | 431 kts | 47° |
| 2026-05-05 18:54 | 41.09390 | -73.59294 | 16567 ft | 432 kts | 47° |
| 2026-05-05 18:54 | 41.11331 | -73.56245 | 17009 ft | 434 kts | 47° |
| 2026-05-05 18:55 | 41.13283 | -73.53179 | 17449 ft | 436 kts | 48° |
| 2026-05-05 18:55 | 41.15243 | -73.50096 | 17898 ft | 438 kts | 48° |
| 2026-05-05 18:55 | 41.17206 | -73.47003 | 18288 ft | 440 kts | 48° |
| 2026-05-05 18:55 | 41.19183 | -73.43887 | 18644 ft | 442 kts | 48° |
| 2026-05-05 18:56 | 41.21167 | -73.40755 | 19010 ft | 445 kts | 48° |
| 2026-05-05 18:56 | 41.23163 | -73.37602 | 19356 ft | 447 kts | 48° |
| 2026-05-05 18:56 | 41.25168 | -73.34431 | 19702 ft | 449 kts | 48° |
| 2026-05-05 18:56 | 41.27176 | -73.31251 | 20038 ft | 450 kts | 48° |
| 2026-05-05 18:57 | 41.29196 | -73.28050 | 20331 ft | 453 kts | 48° |
| 2026-05-05 18:57 | 41.31229 | -73.24826 | 20646 ft | 456 kts | 48° |
| 2026-05-05 18:57 | 41.33268 | -73.21588 | 20978 ft | 458 kts | 48° |
| 2026-05-05 18:57 | 41.35316 | -73.18330 | 21285 ft | 460 kts | 48° |
| 2026-05-05 18:58 | 41.37374 | -73.15054 | 21633 ft | 462 kts | 48° |
| 2026-05-05 18:58 | 41.39224 | -73.11528 | 21867 ft | 467 kts | 58° |
| 2026-05-05 18:58 | 41.40831 | -73.07843 | 22164 ft | 469 kts | 58° |
| 2026-05-05 18:58 | 41.42489 | -73.04007 | 22482 ft | 470 kts | 58° |
| 2026-05-05 18:59 | 41.44155 | -73.00247 | 22781 ft | 472 kts | 57° |
| 2026-05-05 18:59 | 41.45844 | -72.96477 | 23090 ft | 474 kts | 57° |
| 2026-05-05 18:59 | 41.47496 | -72.92733 | 23337 ft | 476 kts | 58° |
| 2026-05-05 18:59 | 41.49164 | -72.88911 | 23552 ft | 479 kts | 58° |
| 2026-05-05 19:00 | 41.50848 | -72.85068 | 23793 ft | 480 kts | 58° |
| 2026-05-05 19:00 | 41.52542 | -72.81229 | 24049 ft | 481 kts | 57° |
| 2026-05-05 19:00 | 41.54235 | -72.77378 | 24297 ft | 482 kts | 58° |
| 2026-05-05 19:00 | 41.55929 | -72.73502 | 24536 ft | 483 kts | 58° |
| 2026-05-05 19:01 | 41.57624 | -72.69622 | 24785 ft | 484 kts | 58° |
| 2026-05-05 19:01 | 41.59321 | -72.65738 | 25026 ft | 485 kts | 58° |
| 2026-05-05 19:01 | 41.61021 | -72.61844 | 25253 ft | 486 kts | 58° |
| 2026-05-05 19:01 | 41.62724 | -72.57935 | 25479 ft | 487 kts | 58° |
| 2026-05-05 19:02 | 41.64428 | -72.54018 | 25717 ft | 488 kts | 58° |
| 2026-05-05 19:02 | 41.66162 | -72.50118 | 25941 ft | 488 kts | 57° |
| 2026-05-05 19:02 | 41.67950 | -72.46243 | 26192 ft | 489 kts | 56° |
| 2026-05-05 19:02 | 41.69727 | -72.42356 | 26438 ft | 490 kts | 57° |
| 2026-05-05 19:03 | 41.71473 | -72.38435 | 26682 ft | 491 kts | 57° |
| 2026-05-05 19:03 | 41.73222 | -72.34501 | 26910 ft | 492 kts | 57° |
| 2026-05-05 19:03 | 41.74995 | -72.30567 | 27151 ft | 493 kts | 57° |
| 2026-05-05 19:03 | 41.76771 | -72.26634 | 27394 ft | 494 kts | 57° |
| 2026-05-05 19:04 | 41.78540 | -72.22679 | 27639 ft | 496 kts | 57° |
| 2026-05-05 19:04 | 41.80308 | -72.18707 | 27879 ft | 497 kts | 57° |
| 2026-05-05 19:04 | 41.82086 | -72.14724 | 28152 ft | 498 kts | 57° |
| 2026-05-05 19:04 | 41.83869 | -72.10738 | 28394 ft | 499 kts | 57° |
| 2026-05-05 19:05 | 41.85049 | -72.08092 | 28559 ft | 500 kts | 57° |